Time;durP1;ratioP1;P1;durP2;ratioP2;P2;SDS_P1;SDS_P2;PMS_P1;PMS_P2;Temp;Humidity;BMP_temperature;BMP_pressure;BME280_temperature;BME280_humidity;BME280_pressure;Samples;Min_cycle;Max_cycle;Signal;HPM_P1;HPM_P2
2023/08/11 00:02:00;;;;;;;10.07;6.53;;;15.00;99.90;;;;;;5024139;28;20116;-46
2023/08/11 00:04:28;;;;;;;9.13;5.85;;;15.00;99.90;;;;;;5021099;28;20510;-47
2023/08/11 00:06:55;;;;;;;11.68;6.15;;;15.00;99.90;;;;;;5020616;28;20164;-44
2023/08/11 00:09:23;;;;;;;9.75;6.10;;;14.90;99.90;;;;;;5020267;28;20061;-49
2023/08/11 00:11:51;;;;;;;10.57;6.53;;;14.90;99.90;;;;;;5016477;28;20475;-48
2023/08/11 00:14:18;;;;;;;11.32;6.57;;;14.90;99.90;;;;;;5022169;28;20083;-49
2023/08/11 00:16:46;;;;;;;8.35;5.45;;;14.90;99.90;;;;;;5020644;28;20046;-46
2023/08/11 00:19:13;;;;;;;8.52;5.75;;;14.80;99.90;;;;;;5022596;28;20572;-44
2023/08/11 00:21:41;;;;;;;10.13;6.00;;;14.80;99.90;;;;;;5016579;28;20049;-45
2023/08/11 00:24:09;;;;;;;13.65;6.00;;;14.80;99.90;;;;;;5018798;28;20541;-49
2023/08/11 00:26:36;;;;;;;9.27;5.95;;;14.70;99.90;;;;;;5018070;28;20049;-49
2023/08/11 00:29:04;;;;;;;10.38;5.85;;;14.70;99.90;;;;;;5018325;28;20046;-47
2023/08/11 00:31:32;;;;;;;10.68;5.80;;;14.70;99.90;;;;;;5023820;28;20068;-44
2023/08/11 00:33:59;;;;;;;9.50;5.28;;;14.70;99.90;;;;;;5016387;28;20511;-49
2023/08/11 00:36:26;;;;;;;9.02;5.82;;;14.70;99.90;;;;;;5024489;28;20417;-49
2023/08/11 00:39:00;;;;;;;7.68;5.43;;;14.70;99.90;;;;;;5016390;28;20115;-53
2023/08/11 00:41:27;;;;;;;11.20;5.80;;;14.70;99.90;;;;;;5026017;28;20048;-48
2023/08/11 00:43:55;;;;;;;11.43;6.20;;;14.70;99.90;;;;;;5024213;28;20056;-46
2023/08/11 00:46:24;;;;;;;10.18;5.45;;;14.60;99.90;;;;;;5028007;28;20132;-45
2023/08/11 00:48:51;;;;;;;9.27;5.40;;;14.60;99.90;;;;;;5021687;28;20038;-52
2023/08/11 00:51:21;;;;;;;7.80;5.45;;;14.50;99.90;;;;;;5020683;28;20057;-45
2023/08/11 00:53:50;;;;;;;9.13;5.63;;;14.50;99.90;;;;;;5015629;28;20049;-51
2023/08/11 00:56:22;;;;;;;10.75;5.72;;;14.60;99.90;;;;;;5020334;28;20061;-50
2023/08/11 00:58:51;;;;;;;13.65;6.63;;;14.60;99.90;;;;;;5014660;28;20470;-49
2023/08/11 01:01:18;;;;;;;10.35;5.63;;;14.50;99.90;;;;;;5017397;28;20421;-48
2023/08/11 01:03:47;;;;;;;11.93;6.10;;;14.50;99.90;;;;;;5027978;28;20429;-52
2023/08/11 01:06:38;;;;;;;10.93;5.57;;;14.50;99.90;;;;;;5026052;28;20046;-49
2023/08/11 01:09:44;;;;;;;11.10;6.53;;;14.50;99.90;;;;;;5023248;28;20062;-45
2023/08/11 01:12:26;;;;;;;12.68;6.40;;;14.50;99.90;;;;;;5026184;28;20057;-44
2023/08/11 01:15:22;;;;;;;11.82;6.78;;;14.40;99.90;;;;;;5019512;28;20537;-45
2023/08/11 01:17:50;;;;;;;13.95;6.10;;;14.40;99.90;;;;;;5020674;28;20037;-41
2023/08/11 01:20:18;;;;;;;13.88;7.07;;;14.30;99.90;;;;;;5027386;28;20045;-47
2023/08/11 01:22:55;;;;;;;15.50;6.30;;;14.30;99.90;;;;;;5021561;28;20057;-47
2023/08/11 01:25:23;;;;;;;10.57;6.00;;;14.30;99.90;;;;;;5022297;28;20358;-45
2023/08/11 01:27:56;;;;;;;14.60;6.88;;;14.30;99.90;;;;;;5025705;28;20363;-47
2023/08/11 01:30:24;;;;;;;14.93;6.95;;;14.20;99.90;;;;;;5026794;28;20132;-44
2023/08/11 01:32:52;;;;;;;13.93;6.00;;;14.20;99.90;;;;;;5027615;28;20041;-44
2023/08/11 01:35:20;;;;;;;12.00;6.72;;;14.20;99.90;;;;;;5025460;28;20045;-47
2023/08/11 01:38:10;;;;;;;17.40;6.53;;;14.20;99.90;;;;;;5024637;28;20041;-46
2023/08/11 01:40:38;;;;;;;17.92;7.45;;;14.20;99.90;;;;;;5024794;28;20050;-47
2023/08/11 01:43:08;;;;;;;17.08;6.90;;;14.20;99.90;;;;;;5023135;28;20048;-47
2023/08/11 01:45:37;;;;;;;18.38;6.95;;;14.20;99.90;;;;;;5027943;28;20053;-51
2023/08/11 01:48:07;;;;;;;15.20;7.47;;;14.20;99.90;;;;;;5019875;28;20038;-48
2023/08/11 01:50:35;;;;;;;14.82;7.05;;;14.20;99.90;;;;;;5023409;28;20130;-51
2023/08/11 01:53:03;;;;;;;11.45;6.18;;;14.10;99.90;;;;;;5024888;28;20045;-51
2023/08/11 01:55:32;;;;;;;13.43;6.95;;;14.10;99.90;;;;;;5020766;28;20053;-49
2023/08/11 01:57:59;;;;;;;11.75;6.28;;;14.10;99.90;;;;;;5025060;28;20072;-48
2023/08/11 02:00:28;;;;;;;11.27;6.18;;;14.10;99.90;;;;;;5025731;28;20160;-46
2023/08/11 02:02:57;;;;;;;10.98;6.63;;;14.00;99.90;;;;;;5024866;28;20057;-51
2023/08/11 02:05:25;;;;;;;12.73;6.78;;;14.00;99.90;;;;;;5022529;28;20049;-47
2023/08/11 02:07:55;;;;;;;10.98;6.28;;;14.10;99.90;;;;;;5025624;28;20046;-46
2023/08/11 02:10:23;;;;;;;11.05;5.78;;;14.00;99.90;;;;;;5040751;28;20079;-43
2023/08/11 02:12:51;;;;;;;10.25;6.05;;;13.90;99.90;;;;;;5027617;28;20048;-49
2023/08/11 02:15:18;;;;;;;9.63;5.85;;;13.90;99.90;;;;;;5028575;28;20041;-50
2023/08/11 02:17:46;;;;;;;12.77;7.53;;;13.90;99.90;;;;;;5026490;28;20046;-50
2023/08/11 02:20:21;;;;;;;11.35;5.95;;;13.90;99.90;;;;;;5028713;28;20037;-44
2023/08/11 02:22:51;;;;;;;10.77;6.00;;;13.90;99.90;;;;;;5027325;28;20147;-48
2023/08/11 02:25:21;;;;;;;9.05;5.97;;;13.90;99.90;;;;;;5028737;28;20058;-46
2023/08/11 02:27:50;;;;;;;10.77;5.90;;;13.90;99.90;;;;;;5029674;28;20041;-45
2023/08/11 02:30:18;;;;;;;7.50;5.40;;;13.90;99.90;;;;;;5028773;28;20052;-48
2023/08/11 02:32:46;;;;;;;8.93;6.07;;;13.90;99.90;;;;;;5031071;28;20117;-44
2023/08/11 02:35:17;;;;;;;11.98;6.07;;;13.90;99.90;;;;;;5031873;28;20041;-45
2023/08/11 02:37:45;;;;;;;8.75;5.28;;;13.80;99.90;;;;;;5038371;28;20429;-48
2023/08/11 02:40:13;;;;;;;9.65;5.05;;;13.80;99.90;;;;;;5027701;28;20033;-49
2023/08/11 02:42:48;;;;;;;9.00;5.47;;;13.80;99.90;;;;;;5029624;28;20056;-52
2023/08/11 02:45:15;;;;;;;8.57;5.82;;;13.80;99.90;;;;;;5024522;28;20469;-51
2023/08/11 02:47:43;;;;;;;9.43;5.65;;;13.70;99.90;;;;;;5027898;28;20080;-53
2023/08/11 02:50:11;;;;;;;10.40;5.50;;;13.70;99.90;;;;;;5027097;28;20115;-46
2023/08/11 02:52:38;;;;;;;9.70;5.53;;;13.70;99.90;;;;;;5026855;28;20337;-46
2023/08/11 02:55:07;;;;;;;9.48;5.07;;;13.60;99.90;;;;;;5028576;28;20227;-44
2023/08/11 02:57:35;;;;;;;9.68;5.45;;;13.60;99.90;;;;;;5028590;28;20548;-44
2023/08/11 03:00:12;;;;;;;9.10;5.47;;;13.60;99.90;;;;;;5027797;28;20041;-43
2023/08/11 03:02:47;;;;;;;8.75;5.38;;;13.60;99.90;;;;;;5028259;28;20053;-47
2023/08/11 03:05:16;;;;;;;6.68;5.07;;;13.60;99.90;;;;;;5025208;28;20107;-44
2023/08/11 03:07:47;;;;;;;7.18;4.82;;;13.50;99.90;;;;;;5024370;28;20092;-52
2023/08/11 03:10:15;;;;;;;11.93;5.63;;;13.60;99.90;;;;;;5029808;28;20072;-46
2023/08/11 03:12:43;;;;;;;9.10;4.95;;;13.50;99.90;;;;;;5026819;28;20057;-49
2023/08/11 03:15:11;;;;;;;7.53;5.25;;;13.50;99.90;;;;;;5029293;28;20053;-45
2023/08/11 03:17:39;;;;;;;9.00;5.75;;;13.50;99.90;;;;;;5028009;28;20104;-51
2023/08/11 03:20:12;;;;;;;8.48;5.53;;;13.50;99.90;;;;;;5027989;28;20123;-43
2023/08/11 03:22:43;;;;;;;8.10;5.25;;;13.50;99.90;;;;;;5027530;28;20113;-46
2023/08/11 03:25:12;;;;;;;9.60;5.22;;;13.40;99.90;;;;;;5026541;28;20046;-49
2023/08/11 03:27:42;;;;;;;8.60;5.40;;;13.30;99.90;;;;;;5029234;28;20049;-44
2023/08/11 03:30:17;;;;;;;9.27;5.10;;;13.30;99.90;;;;;;5029182;28;20092;-46
2023/08/11 03:32:49;;;;;;;8.20;5.50;;;13.30;99.90;;;;;;5024359;28;20042;-49
2023/08/11 03:35:18;;;;;;;8.52;5.63;;;13.20;99.90;;;;;;5023626;28;20546;-45
2023/08/11 03:37:47;;;;;;;6.85;5.10;;;13.30;99.90;;;;;;5026804;28;20045;-51
2023/08/11 03:40:16;;;;;;;8.68;5.35;;;13.20;99.90;;;;;;5023469;28;20063;-49
2023/08/11 03:42:52;;;;;;;9.32;5.80;;;13.20;99.90;;;;;;5026238;28;20133;-48
2023/08/11 03:45:20;;;;;;;8.73;5.03;;;13.10;99.90;;;;;;5024833;28;20056;-49
2023/08/11 03:47:47;;;;;;;7.93;5.68;;;13.10;99.90;;;;;;5027452;28;20518;-46
2023/08/11 03:50:19;;;;;;;;;;;13.10;99.90;;;;;;5025995;28;20498;-53
2023/08/11 03:52:47;;;;;;;8.52;5.75;;;13.10;99.90;;;;;;5029508;28;19921;-51
2023/08/11 03:55:15;;;;;;;7.00;4.90;;;13.00;99.90;;;;;;5020986;28;20061;-52
2023/08/11 03:57:43;;;;;;;6.47;4.90;;;12.90;99.90;;;;;;5032379;28;20049;-48
2023/08/11 04:00:16;;;;;;;7.43;5.10;;;13.00;99.90;;;;;;5025439;28;20120;-44
2023/08/11 04:02:50;;;;;;;8.75;4.78;;;13.00;99.90;;;;;;5023153;28;20475;-54
2023/08/11 04:05:18;;;;;;;7.75;4.95;;;13.00;99.90;;;;;;5043466;28;20061;-43
2023/08/11 04:07:46;;;;;;;8.65;5.72;;;13.10;99.90;;;;;;5028233;28;20045;-51
2023/08/11 04:10:15;;;;;;;7.93;5.10;;;13.20;99.90;;;;;;5027761;28;20079;-49
2023/08/11 04:12:42;;;;;;;7.38;5.07;;;13.20;99.90;;;;;;5029371;28;20198;-46
2023/08/11 04:15:10;;;;;;;8.43;5.60;;;13.30;99.90;;;;;;5026258;28;20041;-46
2023/08/11 04:17:37;;;;;;;10.50;6.30;;;13.30;99.90;;;;;;5022012;28;20061;-43
2023/08/11 04:20:12;;;;;;;9.60;4.68;;;13.30;99.90;;;;;;5025920;28;20100;-48
2023/08/11 04:22:42;;;;;;;7.38;5.25;;;13.30;99.90;;;;;;5042230;28;20437;-48
2023/08/11 04:25:11;;;;;;;9.27;5.32;;;13.30;99.90;;;;;;5026913;28;20041;-50
2023/08/11 04:27:45;;;;;;;6.80;5.00;;;13.40;99.90;;;;;;5025002;28;20045;-49
2023/08/11 04:30:13;;;;;;;8.18;5.15;;;13.40;99.90;;;;;;5025894;28;20044;-48
2023/08/11 04:32:43;;;;;;;8.88;4.70;;;13.40;99.90;;;;;;5025321;28;20133;-44
2023/08/11 04:35:11;;;;;;;9.18;5.18;;;13.50;99.90;;;;;;5025977;28;20049;-47
2023/08/11 04:37:41;;;;;;;6.72;4.28;;;13.50;99.90;;;;;;5027056;28;20040;-43
2023/08/11 04:40:11;;;;;;;7.03;4.65;;;13.60;99.90;;;;;;5021740;28;20060;-46
2023/08/11 04:42:40;;;;;;;6.10;4.55;;;13.60;99.90;;;;;;5023623;28;20519;-43
2023/08/11 04:45:10;;;;;;;8.80;5.32;;;13.70;99.90;;;;;;5023196;28;20065;-48
2023/08/11 04:47:40;;;;;;;10.07;5.25;;;13.80;99.90;;;;;;5026376;28;20049;-50
2023/08/11 04:50:13;;;;;;;8.25;6.05;;;13.80;99.90;;;;;;5018860;28;20138;-49
2023/08/11 04:52:41;;;;;;;8.05;5.10;;;13.90;99.90;;;;;;5032200;28;20401;-43
2023/08/11 04:55:12;;;;;;;7.80;5.07;;;13.90;99.90;;;;;;5016795;28;20047;-46
2023/08/11 04:57:40;;;;;;;11.13;5.45;;;14.00;99.90;;;;;;5022869;28;20648;-42
2023/08/11 05:00:13;;;;;;;9.50;4.90;;;14.00;99.90;;;;;;5026503;28;20045;-45
2023/08/11 05:02:41;;;;;;;7.82;5.18;;;14.10;99.90;;;;;;5026520;28;20617;-48
2023/08/11 05:05:09;;;;;;;8.32;5.22;;;14.20;99.90;;;;;;5024420;28;20045;-48
2023/08/11 05:07:37;;;;;;;7.82;5.18;;;14.20;99.90;;;;;;5019778;28;20180;-47
2023/08/11 05:10:05;;;;;;;8.52;4.55;;;14.30;99.90;;;;;;5019475;28;20042;-50
2023/08/11 05:12:33;;;;;;;7.65;5.57;;;14.40;99.90;;;;;;5018022;28;20069;-49
2023/08/11 05:15:00;;;;;;;7.75;4.95;;;14.40;99.90;;;;;;5018903;28;20457;-47
2023/08/11 05:17:28;;;;;;;6.90;4.82;;;14.40;99.90;;;;;;5022723;28;20429;-45
2023/08/11 05:19:56;;;;;;;7.78;4.88;;;14.50;99.90;;;;;;5025587;28;20046;-45
2023/08/11 05:22:23;;;;;;;7.50;5.07;;;14.60;99.90;;;;;;5024031;28;20053;-49
2023/08/11 05:24:51;;;;;;;6.15;4.55;;;14.70;99.90;;;;;;5022054;28;20042;-45
2023/08/11 05:27:18;;;;;;;8.20;5.18;;;14.80;99.90;;;;;;5020982;28;20084;-50
2023/08/11 05:29:48;;;;;;;6.45;4.70;;;14.90;99.90;;;;;;5017500;28;20076;-48
2023/08/11 05:32:15;;;;;;;8.45;5.25;;;15.00;99.90;;;;;;5019196;28;20037;-43
2023/08/11 05:34:43;;;;;;;6.63;4.65;;;15.00;99.90;;;;;;5020513;28;20571;-49
2023/08/11 05:37:10;;;;;;;7.30;4.90;;;15.00;99.90;;;;;;5024728;28;20053;-50
2023/08/11 05:39:42;;;;;;;7.35;4.78;;;15.10;99.90;;;;;;5020496;28;20067;-49
2023/08/11 05:42:10;;;;;;;10.43;5.10;;;15.20;99.90;;;;;;5017903;28;20058;-48
2023/08/11 05:44:37;;;;;;;6.85;5.68;;;15.20;99.90;;;;;;5021151;28;20068;-47
2023/08/11 05:47:05;;;;;;;8.95;5.32;;;15.30;99.90;;;;;;5014554;28;20431;-50
2023/08/11 05:49:33;;;;;;;8.75;5.60;;;15.30;99.90;;;;;;5015189;28;20053;-48
2023/08/11 05:52:00;;;;;;;7.97;5.47;;;15.40;99.90;;;;;;5015353;28;20046;-51
2023/08/11 05:54:28;;;;;;;8.18;5.18;;;15.40;99.90;;;;;;5016402;28;20056;-47
2023/08/11 05:56:55;;;;;;;7.55;5.55;;;15.50;99.90;;;;;;5012286;28;20095;-47
2023/08/11 05:59:23;;;;;;;8.05;5.00;;;15.60;99.90;;;;;;5018278;28;20107;-51
2023/08/11 06:01:50;;;;;;;9.52;6.05;;;15.60;99.90;;;;;;5016439;28;20466;-45
2023/08/11 06:04:18;;;;;;;7.55;5.50;;;15.70;99.90;;;;;;5023209;28;20463;-45
2023/08/11 06:06:45;;;;;;;10.07;5.30;;;15.80;99.90;;;;;;5016209;28;20081;-51
2023/08/11 06:09:12;;;;;;;7.55;4.93;;;15.80;99.90;;;;;;5016207;28;20076;-53
2023/08/11 06:11:40;;;;;;;8.73;5.00;;;15.90;99.90;;;;;;5021159;28;20073;-51
2023/08/11 06:14:07;;;;;;;7.25;4.50;;;16.00;99.90;;;;;;5022835;28;20244;-50
2023/08/11 06:16:34;;;;;;;7.88;5.13;;;16.10;99.90;;;;;;5020031;28;20128;-47
2023/08/11 06:19:02;;;;;;;6.88;4.90;;;16.20;99.90;;;;;;5017735;28;20422;-52
2023/08/11 06:21:29;;;;;;;8.02;5.10;;;16.20;99.90;;;;;;5018326;28;20464;-48
2023/08/11 06:23:57;;;;;;;9.45;5.20;;;16.30;99.90;;;;;;5025706;28;20136;-47
2023/08/11 06:26:24;;;;;;;6.28;5.18;;;16.40;99.90;;;;;;5016980;28;20418;-49
2023/08/11 06:28:52;;;;;;;7.80;5.15;;;16.40;99.90;;;;;;5019291;28;20552;-51
2023/08/11 06:31:20;;;;;;;9.00;5.25;;;16.50;99.90;;;;;;5021905;28;20153;-50
2023/08/11 06:33:48;;;;;;;7.10;5.20;;;16.70;99.90;;;;;;5016942;28;20042;-44
2023/08/11 06:36:15;;;;;;;6.45;4.63;;;16.70;99.90;;;;;;5017057;28;20065;-47
2023/08/11 06:38:42;;;;;;;8.90;4.97;;;16.80;99.90;;;;;;5017902;28;20443;-50
2023/08/11 06:41:10;;;;;;;9.35;5.90;;;16.80;99.90;;;;;;5016648;28;20135;-50
2023/08/11 06:43:38;;;;;;;7.10;5.32;;;16.90;99.90;;;;;;5020010;28;20133;-50
2023/08/11 06:46:06;;;;;;;9.93;7.05;;;17.00;99.90;;;;;;5018782;28;20128;-45
2023/08/11 06:48:34;;;;;;;9.38;6.43;;;17.10;99.90;;;;;;5016465;28;20516;-44
2023/08/11 06:51:02;;;;;;;7.75;5.35;;;17.10;99.90;;;;;;5018289;28;20038;-50
2023/08/11 06:53:29;;;;;;;10.30;5.25;;;17.20;99.90;;;;;;5017405;28;20130;-47
2023/08/11 06:55:57;;;;;;;7.90;5.43;;;17.30;99.90;;;;;;5019034;28;20045;-50
2023/08/11 06:58:24;;;;;;;8.70;5.30;;;17.40;99.90;;;;;;5021449;28;20092;-47
2023/08/11 07:00:52;;;;;;;6.55;4.45;;;17.50;99.90;;;;;;5017743;28;20050;-50
2023/08/11 07:03:20;;;;;;;7.82;4.88;;;17.60;99.90;;;;;;5025852;28;20128;-46
2023/08/11 07:05:51;;;;;;;8.90;4.60;;;17.70;99.90;;;;;;5018484;28;20038;-49
2023/08/11 07:08:19;;;;;;;8.13;5.25;;;17.80;99.90;;;;;;5022121;28;20406;-49
2023/08/11 07:10:47;;;;;;;7.47;5.00;;;17.90;99.90;;;;;;5024680;28;20080;-48
2023/08/11 07:13:14;;;;;;;7.82;5.35;;;18.00;99.90;;;;;;5025571;28;20671;-48
2023/08/11 07:15:42;;;;;;;8.25;5.20;;;18.10;99.90;;;;;;5021862;28;20063;-46
2023/08/11 07:18:10;;;;;;;10.48;5.43;;;18.30;99.90;;;;;;5025792;28;20120;-48
2023/08/11 07:20:42;;;;;;;8.10;5.53;;;18.30;99.90;;;;;;5023075;28;20060;-45
2023/08/11 07:23:10;;;;;;;9.02;5.70;;;18.50;99.90;;;;;;5021981;28;20099;-51
2023/08/11 07:25:38;;;;;;;6.90;5.20;;;18.50;99.90;;;;;;5022025;28;20058;-50
2023/08/11 07:28:05;;;;;;;6.07;4.97;;;18.60;99.90;;;;;;5020791;28;20462;-51
2023/08/11 07:30:32;;;;;;;6.13;5.00;;;18.70;99.90;;;;;;5025284;28;20673;-45
2023/08/11 07:33:01;;;;;;;7.40;5.20;;;18.80;99.90;;;;;;5020229;28;20574;-49
2023/08/11 07:35:29;;;;;;;6.72;5.40;;;18.90;99.90;;;;;;5020292;28;20084;-48
2023/08/11 07:37:56;;;;;;;5.38;4.60;;;19.00;99.90;;;;;;5022372;28;20494;-47
2023/08/11 07:40:24;;;;;;;13.40;5.43;;;19.10;99.90;;;;;;5025348;28;20144;-50
2023/08/11 07:42:51;;;;;;;12.93;7.22;;;19.20;99.90;;;;;;5021233;28;20215;-45
2023/08/11 07:45:19;;;;;;;10.15;7.18;;;19.30;99.90;;;;;;5023002;28;20502;-45
2023/08/11 07:47:46;;;;;;;7.72;5.50;;;19.40;99.90;;;;;;5021000;28;20042;-53
2023/08/11 07:50:14;;;;;;;7.60;5.70;;;19.50;99.90;;;;;;5025253;28;20033;-45
2023/08/11 07:52:41;;;;;;;10.40;6.00;;;19.50;99.90;;;;;;5018678;28;20037;-48
2023/08/11 07:55:09;;;;;;;6.22;5.60;;;19.60;99.90;;;;;;5029248;28;20418;-50
2023/08/11 07:57:36;;;;;;;6.88;5.15;;;19.80;99.90;;;;;;5018382;28;20144;-50
2023/08/11 08:00:05;;;;;;;6.75;5.32;;;19.90;99.90;;;;;;5024190;28;20049;-47
2023/08/11 08:02:38;;;;;;;6.70;5.30;;;20.10;99.90;;;;;;5021996;28;20045;-45
2023/08/11 08:05:06;;;;;;;6.95;5.28;;;20.20;99.90;;;;;;5020890;28;20042;-46
2023/08/11 08:07:39;;;;;;;7.15;5.00;;;20.30;99.90;;;;;;5022753;28;20053;-48
2023/08/11 08:10:11;;;;;;;5.82;4.60;;;20.40;99.90;;;;;;5019285;28;20056;-49
2023/08/11 08:12:38;;;;;;;;;;;20.50;99.90;;;;;;5021500;28;20041;-49
2023/08/11 08:15:07;;;;;;;7.68;5.40;;;20.60;99.90;;;;;;5019195;28;19971;-47
2023/08/11 08:17:35;;;;;;;5.93;5.32;;;20.70;99.90;;;;;;5022900;28;20271;-46
2023/08/11 08:20:04;;;;;;;6.25;5.53;;;20.80;99.90;;;;;;5020339;28;20472;-47
2023/08/11 08:22:35;;;;;;;7.45;6.30;;;20.90;99.90;;;;;;5018626;28;20057;-49
2023/08/11 08:25:06;;;;;;;6.20;5.00;;;21.00;99.90;;;;;;5025898;28;20075;-47
2023/08/11 08:27:35;;;;;;;7.10;5.65;;;21.10;99.90;;;;;;5017439;28;20158;-51
2023/08/11 08:30:04;;;;;;;7.22;5.13;;;21.10;99.90;;;;;;5021391;28;20505;-46
2023/08/11 08:32:33;;;;;;;6.88;5.90;;;21.30;99.90;;;;;;5021942;28;20103;-48
2023/08/11 08:35:00;;;;;;;7.80;5.53;;;21.40;99.90;;;;;;5018931;28;20506;-46
2023/08/11 08:37:28;;;;;;;6.05;5.45;;;21.40;99.90;;;;;;5027252;28;20061;-49
2023/08/11 08:39:56;;;;;;;7.00;5.47;;;21.50;99.90;;;;;;5023410;28;20516;-48
2023/08/11 08:42:25;;;;;;;8.20;5.75;;;21.60;99.90;;;;;;5023948;28;20418;-49
2023/08/11 08:44:53;;;;;;;6.82;5.95;;;21.80;99.90;;;;;;5028221;28;20152;-47
2023/08/11 08:47:22;;;;;;;6.55;5.13;;;21.90;99.90;;;;;;5018795;28;20041;-47
2023/08/11 08:49:50;;;;;;;7.85;5.30;;;22.00;99.90;;;;;;5021009;28;20049;-46
2023/08/11 08:52:18;;;;;;;7.47;5.43;;;22.00;99.90;;;;;;5020545;28;20069;-44
2023/08/11 08:54:46;;;;;;;6.40;5.43;;;22.20;99.90;;;;;;5026234;28;20121;-46
2023/08/11 08:57:13;;;;;;;7.25;5.72;;;22.30;99.90;;;;;;5025807;28;20060;-47
2023/08/11 08:59:43;;;;;;;9.88;7.15;;;22.50;99.90;;;;;;5023295;28;20506;-49
2023/08/11 09:02:12;;;;;;;7.90;5.50;;;22.60;99.90;;;;;;5019495;28;20077;-49
2023/08/11 09:04:41;;;;;;;8.40;5.72;;;22.70;99.90;;;;;;5025661;28;20550;-53
2023/08/11 09:07:10;;;;;;;11.30;6.47;;;22.70;99.90;;;;;;5025318;28;20045;-48
2023/08/11 09:09:38;;;;;;;8.07;6.47;;;22.80;99.90;;;;;;5024157;28;20524;-49
2023/08/11 09:12:05;;;;;;;6.97;6.28;;;22.90;99.90;;;;;;5025686;28;20565;-49
2023/08/11 09:14:36;;;;;;;9.38;6.60;;;23.00;99.90;;;;;;5021995;28;20578;-49
2023/08/11 09:17:04;;;;;;;8.70;6.75;;;23.10;99.90;;;;;;5024756;28;20426;-49
2023/08/11 09:19:32;;;;;;;7.53;6.82;;;23.20;99.90;;;;;;5027172;28;20387;-50
2023/08/11 09:21:59;;;;;;;11.88;7.32;;;23.20;99.90;;;;;;5026451;28;20041;-46
2023/08/11 09:24:29;;;;;;;9.30;7.30;;;23.30;99.90;;;;;;5026983;28;20216;-47
2023/08/11 09:26:58;;;;;;;6.93;6.32;;;23.40;99.90;;;;;;5026130;28;20045;-50
2023/08/11 09:29:25;;;;;;;7.55;6.85;;;23.50;99.90;;;;;;5027762;28;20042;-51
2023/08/11 09:31:54;;;;;;;7.43;6.63;;;23.50;99.90;;;;;;5028278;28;20041;-48
2023/08/11 09:34:22;;;;;;;7.15;6.47;;;23.70;99.90;;;;;;5027505;28;20056;-46
2023/08/11 09:36:49;;;;;;;7.18;6.25;;;23.90;99.90;;;;;;5024698;28;20041;-47
2023/08/11 09:39:17;;;;;;;6.20;5.60;;;24.00;99.90;;;;;;5029511;28;20510;-47
2023/08/11 09:41:47;;;;;;;7.38;5.78;;;24.10;99.90;;;;;;5028187;28;20541;-45
2023/08/11 09:44:19;;;;;;;7.85;5.95;;;24.20;99.90;;;;;;5027016;28;20068;-46
2023/08/11 09:46:48;;;;;;;;;;;24.30;99.90;;;;;;5020516;28;20455;-49
2023/08/11 09:49:17;;;;;;;5.80;5.22;;;24.40;99.90;;;;;;5022578;28;19956;-49
2023/08/11 09:51:45;;;;;;;6.95;5.60;;;24.50;99.90;;;;;;5026245;28;20136;-44
2023/08/11 09:54:14;;;;;;;6.75;5.50;;;24.40;99.90;;;;;;5026635;28;20049;-45
2023/08/11 09:56:43;;;;;;;5.82;5.22;;;24.50;99.90;;;;;;5022650;28;20142;-45
2023/08/11 09:59:20;;;;;;;6.30;5.72;;;24.70;99.90;;;;;;5022834;28;20049;-47
2023/08/11 10:01:51;;;;;;;6.72;6.13;;;24.90;99.90;;;;;;5028274;28;20103;-49
2023/08/11 10:04:27;;;;;;;6.45;5.82;;;25.10;99.90;;;;;;5021820;28;20077;-51
2023/08/11 10:06:59;;;;;;;9.02;5.70;;;25.20;99.90;;;;;;5027931;28;20465;-54
2023/08/11 10:09:28;;;;;;;10.20;7.18;;;25.20;99.90;;;;;;5025616;28;20132;-49
2023/08/11 10:11:58;;;;;;;6.40;5.80;;;25.30;99.90;;;;;;5025418;28;20045;-45
2023/08/11 10:14:27;;;;;;;7.70;5.10;;;25.30;99.90;;;;;;5026002;28;20045;-47
2023/08/11 10:16:56;;;;;;;5.80;5.20;;;25.40;99.90;;;;;;5025391;28;20122;-55
2023/08/11 10:19:24;;;;;;;5.65;5.15;;;25.60;99.90;;;;;;5027221;28;20050;-54
2023/08/11 10:21:51;;;;;;;7.38;5.72;;;25.50;99.90;;;;;;5022691;28;20045;-49
2023/08/11 10:24:20;;;;;;;6.40;5.68;;;25.70;99.90;;;;;;5028134;28;20144;-47
2023/08/11 10:26:48;;;;;;;6.03;5.47;;;25.90;99.90;;;;;;5026219;28;20118;-49
2023/08/11 10:29:16;;;;;;;6.38;5.70;;;26.00;99.90;;;;;;5027791;28;20108;-50
2023/08/11 10:31:54;;;;;;;6.22;5.63;;;26.10;99.90;;;;;;5026652;28;20104;-51
2023/08/11 10:34:23;;;;;;;6.22;5.60;;;26.30;99.90;;;;;;5026620;28;20084;-47
2023/08/11 10:36:53;;;;;;;8.85;5.68;;;26.50;99.90;;;;;;5030303;28;20514;-50
2023/08/11 10:39:22;;;;;;;6.07;5.47;;;26.80;99.90;;;;;;5029132;28;20154;-51
2023/08/11 10:41:49;;;;;;;6.25;5.50;;;26.70;99.90;;;;;;5025835;28;20517;-51
2023/08/11 10:44:26;;;;;;;6.20;5.60;;;26.70;99.90;;;;;;5025527;28;20057;-47
2023/08/11 10:46:56;;;;;;;18.38;13.35;;;26.90;99.90;;;;;;5029516;28;20503;-57
2023/08/11 10:49:34;;;;;;;6.68;6.07;;;26.80;99.90;;;;;;5023186;28;20115;-55
2023/08/11 10:52:03;;;;;;;6.00;5.50;;;27.00;99.90;;;;;;5029802;28;20343;-51
2023/08/11 10:54:31;;;;;;;6.72;5.63;;;27.10;99.90;;;;;;5028187;28;20080;-45
2023/08/11 10:57:02;;;;;;;6.53;5.93;;;27.20;99.90;;;;;;5027432;28;20046;-46
2023/08/11 10:59:32;;;;;;;7.20;5.20;;;27.40;99.90;;;;;;5029461;28;20148;-52
2023/08/11 11:01:59;;;;;;;6.95;5.70;;;27.50;99.90;;;;;;5030488;28;20037;-54
2023/08/11 11:04:31;;;;;;;5.93;5.32;;;27.80;99.90;;;;;;5028453;28;20045;-49
2023/08/11 11:07:00;;;;;;;5.95;5.35;;;28.00;99.90;;;;;;5026108;28;20065;-51
2023/08/11 11:09:28;;;;;;;6.32;5.60;;;28.20;99.90;;;;;;5028807;28;20132;-48
2023/08/11 11:11:56;;;;;;;6.75;6.13;;;28.30;99.90;;;;;;5025608;28;20045;-48
2023/08/11 11:14:24;;;;;;;5.70;5.20;;;28.60;99.90;;;;;;5029630;28;20060;-58
2023/08/11 11:16:58;;;;;;;5.90;5.30;;;28.80;99.90;;;;;;5027027;28;20505;-48
2023/08/11 11:19:27;;;;;;;6.40;5.35;;;28.80;99.90;;;;;;5028014;28;20526;-54
2023/08/11 11:21:54;;;;;;;6.28;5.40;;;28.50;99.90;;;;;;5025986;28;20099;-50
2023/08/11 11:24:22;;;;;;;6.45;5.43;;;28.40;99.90;;;;;;5029811;28;20081;-46
2023/08/11 11:26:49;;;;;;;5.90;5.38;;;28.40;99.90;;;;;;5020538;28;20073;-47
2023/08/11 11:29:23;;;;;;;6.30;5.70;;;28.50;99.90;;;;;;5025612;28;20049;-49
2023/08/11 11:31:51;;;;;;;5.82;5.22;;;28.70;99.90;;;;;;5025742;28;20064;-47
2023/08/11 11:34:19;;;;;;;6.30;5.63;;;28.90;99.90;;;;;;5029941;28;20518;-46
2023/08/11 11:36:47;;;;;;;6.43;5.45;;;29.00;99.90;;;;;;5029769;28;20046;-46
2023/08/11 11:39:14;;;;;;;6.10;5.60;;;29.10;99.90;;;;;;5029587;28;20530;-47
2023/08/11 11:41:42;;;;;;;6.07;5.47;;;29.20;99.50;;;;;;5028628;28;20049;-47
2023/08/11 11:44:09;;;;;;;6.00;5.35;;;29.30;99.00;;;;;;5028641;28;20298;-49
2023/08/11 11:46:37;;;;;;;6.07;5.47;;;29.70;98.60;;;;;;5027785;28;20582;-50
2023/08/11 11:49:06;;;;;;;5.85;5.35;;;29.90;98.60;;;;;;5028927;28;20045;-53
2023/08/11 11:51:54;;;;;;;8.63;5.82;;;30.60;98.20;;;;;;5025326;28;20056;-49
2023/08/11 11:54:22;;;;;;;7.45;5.78;;;31.00;96.50;;;;;;5029301;28;20509;-53
2023/08/11 11:56:49;;;;;;;6.07;5.57;;;31.30;96.20;;;;;;5030106;28;20394;-46
2023/08/11 11:59:32;;;;;;;6.40;5.80;;;31.50;95.40;;;;;;5030063;28;20041;-51
2023/08/11 12:02:03;;;;;;;9.55;6.10;;;32.20;94.80;;;;;;5029511;28;20335;-48
2023/08/11 12:04:31;;;;;;;6.53;5.82;;;32.60;93.60;;;;;;5026518;28;20057;-47
2023/08/11 12:07:01;;;;;;;6.40;5.90;;;32.80;93.00;;;;;;5028639;28;20050;-48
2023/08/11 12:09:28;;;;;;;6.00;5.50;;;33.00;91.90;;;;;;5029903;28;20486;-51
2023/08/11 12:11:56;;;;;;;6.40;5.82;;;33.20;91.30;;;;;;5025435;28;20053;-48
2023/08/11 12:14:27;;;;;;;6.40;5.80;;;33.50;90.10;;;;;;5025313;28;20435;-54
2023/08/11 12:16:57;;;;;;;6.25;5.72;;;33.30;89.10;;;;;;5024724;28;20420;-56
2023/08/11 12:19:24;;;;;;;6.82;6.20;;;32.90;88.60;;;;;;5027977;28;20049;-55
2023/08/11 12:21:52;;;;;;;7.35;6.35;;;32.40;89.40;;;;;;5024921;28;20180;-49
2023/08/11 12:24:21;;;;;;;7.28;6.15;;;32.70;90.20;;;;;;5029752;28;20108;-50
2023/08/11 12:26:48;;;;;;;6.75;6.03;;;32.40;89.60;;;;;;5029037;28;20126;-50
2023/08/11 12:29:16;;;;;;;6.40;5.90;;;32.50;89.20;;;;;;5027575;28;20061;-49
2023/08/11 12:31:43;;;;;;;8.95;8.05;;;32.70;89.50;;;;;;5028010;28;20041;-48
2023/08/11 12:34:13;;;;;;;6.50;5.90;;;33.10;87.30;;;;;;5028608;28;20051;-52
2023/08/11 12:36:40;;;;;;;6.50;5.90;;;33.40;85.80;;;;;;5027546;28;20045;-47
2023/08/11 12:39:08;;;;;;;6.60;5.97;;;33.90;85.40;;;;;;5030599;28;20056;-45
2023/08/11 12:41:35;;;;;;;6.68;6.07;;;34.10;84.00;;;;;;5026868;28;20144;-51
2023/08/11 12:44:03;;;;;;;6.30;5.80;;;34.50;82.30;;;;;;5027400;28;20505;-44
2023/08/11 12:46:30;;;;;;;7.45;5.78;;;34.70;80.70;;;;;;5023474;28;20506;-47
2023/08/11 12:48:58;;;;;;;6.47;5.97;;;34.90;79.50;;;;;;5028682;28;20516;-47
2023/08/11 12:51:25;;;;;;;6.65;6.05;;;35.60;80.00;;;;;;5028255;28;20580;-52
2023/08/11 12:53:52;;;;;;;6.88;6.28;;;36.10;79.10;;;;;;5029740;28;20048;-50
2023/08/11 12:56:19;;;;;;;6.60;6.07;;;35.50;78.10;;;;;;5026689;28;20406;-51